createdAt,value
2022-12-11T00:00:41.567Z,10.77
2022-12-11T00:03:15.392Z,11.10
2022-12-11T00:05:44.580Z,11.50
2022-12-11T00:08:12.813Z,11.00
2022-12-11T00:10:40.704Z,11.37
2022-12-11T00:13:08.431Z,11.43
2022-12-11T00:15:39.107Z,13.20
2022-12-11T00:18:06.840Z,12.53
2022-12-11T00:20:34.667Z,12.80
2022-12-11T00:23:02.486Z,13.07
2022-12-11T00:25:30.232Z,12.10
2022-12-11T00:27:58.037Z,11.23
2022-12-11T00:30:25.836Z,12.63
2022-12-11T00:32:55.108Z,11.40
2022-12-11T00:35:22.918Z,13.87
2022-12-11T00:37:50.721Z,11.63
2022-12-11T00:40:18.667Z,11.60
2022-12-11T00:42:46.437Z,12.63
2022-12-11T00:45:14.217Z,10.30
2022-12-11T00:47:42.026Z,11.03
2022-12-11T00:50:11.834Z,11.73
2022-12-11T00:52:40.576Z,10.37
2022-12-11T00:55:09.254Z,12.17
2022-12-11T00:57:37.255Z,11.37
2022-12-11T01:00:07.018Z,11.63
2022-12-11T01:02:35.000Z,11.60
2022-12-11T01:05:02.788Z,13.37
2022-12-11T01:07:32.166Z,11.47
2022-12-11T01:10:16.537Z,11.30
2022-12-11T01:12:44.406Z,11.33
2022-12-11T01:15:12.934Z,11.87
2022-12-11T01:17:40.975Z,11.47
2022-12-11T01:20:09.539Z,10.40
2022-12-11T01:22:38.652Z,10.83
2022-12-11T01:25:07.202Z,10.50
2022-12-11T01:27:35.110Z,10.13
2022-12-11T01:30:02.996Z,9.67
2022-12-11T01:32:30.776Z,11.60
2022-12-11T01:34:58.686Z,9.50
2022-12-11T01:37:26.470Z,9.40
2022-12-11T01:39:55.816Z,9.43
2022-12-11T01:42:25.084Z,10.23
2022-12-11T01:45:21.623Z,9.33
2022-12-11T01:47:49.531Z,9.10
2022-12-11T01:50:17.633Z,8.17
2022-12-11T01:52:48.055Z,10.17
2022-12-11T01:55:18.301Z,7.90
2022-12-11T01:57:49.144Z,10.27
2022-12-11T02:00:17.932Z,9.60
2022-12-11T02:02:46.119Z,9.40
2022-12-11T02:05:14.072Z,8.83
2022-12-11T02:07:46.750Z,8.83
2022-12-11T02:10:15.143Z,8.33
2022-12-11T02:12:54.176Z,8.90
2022-12-11T02:15:30.337Z,9.67
2022-12-11T02:18:13.902Z,9.17
2022-12-11T02:20:49.084Z,10.10
2022-12-11T02:23:32.163Z,10.60
2022-12-11T02:26:14.280Z,9.47
2022-12-11T02:28:47.857Z,8.80
2022-12-11T02:31:21.520Z,8.73
2022-12-11T02:33:54.179Z,9.30
2022-12-11T02:36:27.310Z,8.70
2022-12-11T02:38:57.678Z,9.17
2022-12-11T02:41:28.117Z,8.77
2022-12-11T02:43:58.742Z,9.60
2022-12-11T02:46:28.246Z,9.47
2022-12-11T02:48:57.611Z,8.40
2022-12-11T02:51:29.178Z,7.80
2022-12-11T02:54:00.110Z,8.40
2022-12-11T02:56:33.095Z,8.83
2022-12-11T02:59:08.152Z,8.40
2022-12-11T03:01:36.229Z,8.20
2022-12-11T03:04:04.123Z,7.00
2022-12-11T03:06:37.725Z,8.73
2022-12-11T03:09:06.340Z,7.80
2022-12-11T03:11:34.111Z,9.33
2022-12-11T03:14:03.896Z,7.60
2022-12-11T03:16:36.580Z,8.27
2022-12-11T03:19:13.263Z,7.30
2022-12-11T03:21:47.212Z,8.40
2022-12-11T03:24:20.944Z,7.13
2022-12-11T03:26:56.846Z,8.27
2022-12-11T03:29:33.042Z,6.60
2022-12-11T03:32:07.388Z,6.97
2022-12-11T03:34:42.351Z,7.90
2022-12-11T03:37:11.473Z,8.43
2022-12-11T03:39:43.845Z,7.97
2022-12-11T03:42:14.607Z,8.80
2022-12-11T03:44:48.697Z,8.70
2022-12-11T03:47:20.242Z,8.77
2022-12-11T03:49:50.591Z,6.73
2022-12-11T03:52:19.038Z,8.27
2022-12-11T03:54:50.669Z,8.30
2022-12-11T03:57:23.303Z,8.00
2022-12-11T03:59:52.476Z,7.80
2022-12-11T04:02:20.239Z,8.17
2022-12-11T04:04:48.004Z,7.20
2022-12-11T04:07:16.012Z,8.03
2022-12-11T04:09:43.823Z,7.37
2022-12-11T04:12:11.637Z,7.93
2022-12-11T04:14:56.699Z,7.37
2022-12-11T04:17:43.679Z,8.60
2022-12-11T04:20:30.021Z,7.13
2022-12-11T04:23:15.497Z,8.07
2022-12-11T04:25:43.381Z,7.83
2022-12-11T04:28:11.179Z,7.13
2022-12-11T04:30:38.955Z,8.17
2022-12-11T04:33:08.217Z,5.67
2022-12-11T04:35:37.041Z,7.37
2022-12-11T04:38:04.812Z,7.00
2022-12-11T04:40:32.538Z,7.57
2022-12-11T04:43:00.348Z,5.83
2022-12-11T04:45:28.109Z,7.40
2022-12-11T04:47:55.904Z,5.83
2022-12-11T04:50:25.029Z,6.53
2022-12-11T04:52:55.937Z,6.33
2022-12-11T04:55:24.441Z,6.73
2022-12-11T04:57:52.236Z,6.37
2022-12-11T05:00:20.252Z,6.70
2022-12-11T05:02:48.332Z,5.40
2022-12-11T05:05:16.207Z,6.70
2022-12-11T05:07:45.479Z,6.13
2022-12-11T05:10:13.261Z,6.10
2022-12-11T05:12:41.090Z,6.10
2022-12-11T05:15:10.059Z,6.63
2022-12-11T05:17:38.032Z,6.53
2022-12-11T05:20:06.715Z,6.87
2022-12-11T05:22:34.519Z,5.73
2022-12-11T05:25:04.233Z,6.57
2022-12-11T05:27:32.057Z,5.97
2022-12-11T05:30:00.023Z,6.17
2022-12-11T05:32:28.006Z,6.63
2022-12-11T05:34:55.752Z,6.30
2022-12-11T05:37:23.696Z,5.63
2022-12-11T05:39:51.463Z,6.70
2022-12-11T05:42:25.435Z,6.90
2022-12-11T05:44:56.380Z,6.40
2022-12-11T05:47:24.151Z,7.00
2022-12-11T05:49:52.012Z,6.30
2022-12-11T05:52:19.782Z,6.53
2022-12-11T05:54:49.811Z,5.53
2022-12-11T05:57:17.823Z,6.00
2022-12-11T05:59:47.198Z,6.10
2022-12-11T06:02:15.248Z,6.00
2022-12-11T06:04:43.072Z,5.97
2022-12-11T06:07:10.906Z,6.27
2022-12-11T06:09:38.716Z,7.40
2022-12-11T06:12:06.805Z,7.43
2022-12-11T06:14:34.616Z,7.47
2022-12-11T06:17:03.708Z,6.77
2022-12-11T06:19:36.570Z,6.63
2022-12-11T06:22:05.255Z,6.70
2022-12-11T06:24:33.189Z,6.17
2022-12-11T06:27:00.919Z,6.50
2022-12-11T06:29:28.771Z,6.70
2022-12-11T06:31:56.667Z,6.63
2022-12-11T06:34:25.834Z,6.87
2022-12-11T06:36:53.597Z,6.60
2022-12-11T06:39:21.375Z,6.40
2022-12-11T06:41:49.187Z,8.77
2022-12-11T06:44:17.006Z,7.60
2022-12-11T06:46:44.780Z,7.50
2022-12-11T06:49:12.551Z,7.63
2022-12-11T06:51:41.648Z,8.30
2022-12-11T06:54:09.379Z,8.67
2022-12-11T06:56:37.181Z,7.20
2022-12-11T06:59:07.473Z,7.63
2022-12-11T07:01:35.558Z,8.33
2022-12-11T07:04:03.375Z,9.07
2022-12-11T07:06:31.165Z,7.70
2022-12-11T07:09:00.321Z,6.73
2022-12-11T07:11:28.122Z,7.03
2022-12-11T07:13:56.002Z,7.27
2022-12-11T07:16:23.885Z,7.47
2022-12-11T07:18:53.376Z,8.00
2022-12-11T07:21:21.877Z,8.90
2022-12-11T07:23:50.058Z,7.70
2022-12-11T07:26:20.863Z,8.60
2022-12-11T07:28:49.136Z,8.47
2022-12-11T07:31:18.941Z,8.60
2022-12-11T07:33:47.513Z,8.73
2022-12-11T07:36:16.106Z,8.07
2022-12-11T07:38:43.836Z,7.87
2022-12-11T07:41:14.379Z,9.13
2022-12-11T07:43:43.832Z,8.00
2022-12-11T07:46:14.232Z,8.47
2022-12-11T07:48:43.531Z,8.80
2022-12-11T07:51:12.703Z,7.20
2022-12-11T07:53:40.481Z,7.90
2022-12-11T07:56:09.120Z,9.43
2022-12-11T07:58:38.805Z,8.53
2022-12-11T08:01:11.686Z,8.13
2022-12-11T08:03:40.196Z,7.67
2022-12-11T08:06:08.348Z,8.83
2022-12-11T08:08:36.416Z,8.93
2022-12-11T08:11:04.723Z,8.87
2022-12-11T08:13:32.770Z,8.73
2022-12-11T08:16:00.554Z,8.40
2022-12-11T08:18:30.349Z,9.93
2022-12-11T08:20:58.419Z,7.53
2022-12-11T08:23:26.153Z,7.83
2022-12-11T08:25:53.935Z,9.33
2022-12-11T08:28:21.746Z,6.93
2022-12-11T08:30:49.609Z,9.40
2022-12-11T08:33:17.438Z,7.90
2022-12-11T08:35:46.653Z,8.67
2022-12-11T08:38:15.255Z,7.40
2022-12-11T08:40:43.091Z,9.00
2022-12-11T08:43:10.834Z,7.50
2022-12-11T08:45:39.375Z,6.87
2022-12-11T08:48:07.511Z,7.23
2022-12-11T08:50:35.483Z,9.60
2022-12-11T08:53:05.041Z,7.60
2022-12-11T08:55:33.300Z,8.47
2022-12-11T08:58:01.199Z,8.13
2022-12-11T09:00:28.952Z,8.47
2022-12-11T09:02:56.732Z,8.80
2022-12-11T09:05:24.533Z,8.67
2022-12-11T09:07:52.380Z,7.80
2022-12-11T09:10:21.814Z,8.17
2022-12-11T09:12:49.559Z,7.63
2022-12-11T09:15:17.712Z,8.47
2022-12-11T09:17:45.475Z,6.97
2022-12-11T09:20:13.488Z,3.83
2022-12-11T09:22:42.714Z,6.57
2022-12-11T09:25:11.087Z,6.07
2022-12-11T09:27:40.386Z,8.20
2022-12-11T09:30:09.477Z,7.17
2022-12-11T09:32:37.231Z,7.40
2022-12-11T09:35:05.491Z,7.70
2022-12-11T09:37:34.349Z,7.07
2022-12-11T09:40:07.355Z,6.50
2022-12-11T09:42:54.009Z,7.50
2022-12-11T09:45:22.226Z,7.97
2022-12-11T09:47:53.092Z,8.37
2022-12-11T09:50:25.357Z,5.63
2022-12-11T09:53:04.063Z,7.50
2022-12-11T09:55:40.315Z,6.73
2022-12-11T09:58:21.832Z,6.17
2022-12-11T10:00:54.314Z,7.10
2022-12-11T10:03:57.393Z,7.30
2022-12-11T10:06:29.911Z,6.27
2022-12-11T10:09:07.544Z,7.07
2022-12-11T10:11:55.908Z,6.20
2022-12-11T10:14:37.876Z,7.20
2022-12-11T10:17:12.177Z,6.53
2022-12-11T10:19:41.891Z,7.73
2022-12-11T10:22:19.176Z,6.97
2022-12-11T10:27:41.715Z,7.07
2022-12-11T10:30:17.502Z,6.57
2022-12-11T10:32:52.663Z,7.13
2022-12-11T10:35:31.995Z,7.40
2022-12-11T10:38:11.453Z,7.63
2022-12-11T10:40:41.022Z,6.60
2022-12-11T10:43:08.812Z,6.33
2022-12-11T10:45:38.394Z,5.80
2022-12-11T10:48:08.615Z,7.83
2022-12-11T10:50:36.505Z,6.20
2022-12-11T10:53:04.513Z,7.50
2022-12-11T10:55:40.423Z,6.77
2022-12-11T10:58:08.287Z,5.60
2022-12-11T11:00:40.561Z,6.00
2022-12-11T11:03:22.626Z,5.90
2022-12-11T11:05:51.043Z,6.13
2022-12-11T11:08:21.286Z,6.93
2022-12-11T11:10:54.507Z,7.03
2022-12-11T11:13:24.209Z,5.83
2022-12-11T11:16:00.933Z,5.87
2022-12-11T11:18:30.476Z,6.63
2022-12-11T11:20:58.690Z,7.80
2022-12-11T11:23:27.118Z,7.70
2022-12-11T11:25:56.771Z,8.00
2022-12-11T11:28:27.978Z,6.70
2022-12-11T11:31:03.278Z,6.30
2022-12-11T11:33:33.416Z,6.40
2022-12-11T11:36:03.360Z,5.00
2022-12-11T11:38:34.543Z,5.87
2022-12-11T11:41:15.243Z,5.93
2022-12-11T11:43:47.388Z,6.73
2022-12-11T11:46:21.259Z,7.80
2022-12-11T11:49:00.156Z,6.57
2022-12-11T11:51:34.680Z,6.97
2022-12-11T11:54:19.432Z,6.00
2022-12-11T11:56:47.635Z,5.90
2022-12-11T11:59:21.154Z,7.47
2022-12-11T12:01:51.484Z,6.00
2022-12-11T12:04:19.283Z,5.70
2022-12-11T12:07:10.179Z,5.93
2022-12-11T12:09:48.077Z,6.57
2022-12-11T12:12:28.519Z,5.50
2022-12-11T12:15:19.593Z,5.50
2022-12-11T12:17:55.949Z,5.70
2022-12-11T12:20:37.892Z,6.30
2022-12-11T12:23:36.318Z,5.07
2022-12-11T12:26:12.206Z,4.57
2022-12-11T12:28:46.052Z,5.50
2022-12-11T12:31:28.193Z,4.90
2022-12-11T12:34:05.707Z,6.13
2022-12-11T12:36:44.349Z,4.57
2022-12-11T12:39:19.260Z,5.70
2022-12-11T12:41:53.895Z,5.20
2022-12-11T12:44:23.801Z,4.67
2022-12-11T12:46:57.297Z,5.63
2022-12-11T12:49:37.427Z,5.73
2022-12-11T12:52:07.816Z,3.97
2022-12-11T12:54:36.685Z,5.57
2022-12-11T12:57:06.010Z,5.83
2022-12-11T12:59:33.804Z,5.07
2022-12-11T13:02:03.683Z,3.53
2022-12-11T13:04:57.878Z,4.07
2022-12-11T13:07:30.408Z,4.10
2022-12-11T13:10:01.402Z,3.70
2022-12-11T13:12:35.168Z,3.20
2022-12-11T13:15:03.056Z,4.13
2022-12-11T13:17:38.540Z,4.00
2022-12-11T13:20:20.329Z,4.23
2022-12-11T13:23:10.951Z,4.13
2022-12-11T13:25:54.204Z,6.03
2022-12-11T13:28:25.843Z,4.30
2022-12-11T13:31:07.282Z,4.33
2022-12-11T13:33:42.495Z,4.07
2022-12-11T13:36:27.854Z,4.60
2022-12-11T13:38:57.856Z,3.57
2022-12-11T13:41:26.054Z,4.50
2022-12-11T13:43:54.631Z,2.40
2022-12-11T13:46:26.180Z,4.60
2022-12-11T13:48:57.188Z,4.20
2022-12-11T13:51:27.537Z,4.57
2022-12-11T13:54:17.598Z,3.90
2022-12-11T13:57:02.099Z,3.67
2022-12-11T13:59:33.480Z,3.40
2022-12-11T14:02:13.341Z,3.80
2022-12-11T14:04:41.792Z,3.80
2022-12-11T14:07:12.436Z,3.97
2022-12-11T14:09:44.375Z,3.63
2022-12-11T14:12:18.415Z,3.30
2022-12-11T14:14:50.729Z,4.20
2022-12-11T14:17:24.139Z,3.77
2022-12-11T14:19:52.549Z,4.80
2022-12-11T14:22:23.822Z,3.60
2022-12-11T14:24:53.262Z,4.33
2022-12-11T14:27:21.888Z,3.90
2022-12-11T14:29:50.591Z,3.27
2022-12-11T14:32:25.856Z,4.00
2022-12-11T14:34:55.218Z,4.10
2022-12-11T14:37:26.018Z,4.10
2022-12-11T14:40:00.741Z,5.00
2022-12-11T14:42:32.062Z,3.60
2022-12-11T14:45:06.449Z,4.77
2022-12-11T14:47:40.094Z,3.90
2022-12-11T14:50:12.678Z,4.10
2022-12-11T14:52:47.127Z,4.30
2022-12-11T14:55:18.723Z,4.50
2022-12-11T14:57:49.532Z,3.80
2022-12-11T15:00:26.947Z,3.77
2022-12-11T15:03:00.301Z,5.30
2022-12-11T15:05:28.701Z,4.93
2022-12-11T15:07:59.957Z,9.32
2022-12-11T15:10:37.508Z,10.07
2022-12-11T15:13:06.827Z,8.00
2022-12-11T15:15:44.178Z,5.17
2022-12-11T15:18:20.238Z,5.80
2022-12-11T15:20:52.604Z,4.17
2022-12-11T15:23:21.860Z,4.83
2022-12-11T15:25:53.833Z,5.10
2022-12-11T15:28:29.599Z,3.70
2022-12-11T15:30:59.787Z,5.10
2022-12-11T15:33:33.885Z,5.37
2022-12-11T15:36:04.773Z,5.10
2022-12-11T15:38:40.538Z,4.20
2022-12-11T15:41:15.683Z,4.73
2022-12-11T15:43:44.571Z,5.03
2022-12-11T15:46:12.381Z,4.67
2022-12-11T15:48:40.335Z,5.17
2022-12-11T15:51:08.141Z,4.17
2022-12-11T15:53:37.491Z,5.30
2022-12-11T15:56:06.016Z,3.60
2022-12-11T15:58:35.431Z,4.57
2022-12-11T16:01:03.300Z,4.87
2022-12-11T16:03:31.141Z,5.40
2022-12-11T16:06:00.145Z,5.00
2022-12-11T16:08:28.045Z,5.27
2022-12-11T16:10:57.191Z,4.90
2022-12-11T16:13:24.980Z,4.80
2022-12-11T16:15:54.120Z,4.90
2022-12-11T16:18:23.808Z,5.00
2022-12-11T16:20:52.644Z,5.50
2022-12-11T16:23:20.512Z,4.80
2022-12-11T16:25:48.707Z,5.13
2022-12-11T16:28:21.747Z,5.50
2022-12-11T16:30:49.947Z,5.33
2022-12-11T16:33:18.189Z,7.60
2022-12-11T16:35:45.969Z,5.23
2022-12-11T16:38:13.783Z,5.50
2022-12-11T16:40:41.612Z,5.20
2022-12-11T16:43:09.376Z,6.10
2022-12-11T16:45:38.466Z,6.30
2022-12-11T16:48:06.824Z,5.40
2022-12-11T16:50:36.046Z,5.93
2022-12-11T16:53:03.906Z,5.93
2022-12-11T16:55:31.666Z,5.83
2022-12-11T16:57:59.383Z,5.93
2022-12-11T17:00:27.130Z,6.40
2022-12-11T17:02:56.659Z,6.50
2022-12-11T17:05:24.793Z,7.50
2022-12-11T17:07:52.709Z,6.13
2022-12-11T17:10:20.633Z,7.07
2022-12-11T17:12:48.384Z,6.27
2022-12-11T17:15:16.257Z,6.40
2022-12-11T17:17:44.108Z,6.37
2022-12-11T17:20:13.310Z,6.30
2022-12-11T17:22:41.332Z,5.93
2022-12-11T17:25:09.930Z,5.97
2022-12-11T17:27:37.909Z,6.97
2022-12-11T17:30:06.479Z,7.70
2022-12-11T17:32:34.255Z,7.13
2022-12-11T17:35:01.992Z,7.57
2022-12-11T17:37:31.565Z,5.73
2022-12-11T17:39:59.370Z,7.87
2022-12-11T17:42:27.143Z,7.03
2022-12-11T17:44:54.984Z,5.70
2022-12-11T17:47:22.739Z,6.70
2022-12-11T17:49:50.546Z,6.07
2022-12-11T17:52:18.897Z,6.90
2022-12-11T17:54:48.089Z,5.97
2022-12-11T17:57:15.879Z,5.30
2022-12-11T17:59:43.636Z,6.00
2022-12-11T18:02:11.509Z,5.60
2022-12-11T18:04:39.504Z,3.30
2022-12-11T18:07:07.668Z,4.60
2022-12-11T18:09:35.580Z,4.93
2022-12-11T18:12:05.047Z,5.67
2022-12-11T18:14:32.944Z,5.00
2022-12-11T18:17:00.807Z,5.07
2022-12-11T18:19:28.597Z,5.10
2022-12-11T18:21:57.411Z,5.03
2022-12-11T18:24:25.771Z,5.90
2022-12-11T18:26:53.570Z,5.30
2022-12-11T18:29:22.815Z,5.73
2022-12-11T18:31:50.590Z,4.90
2022-12-11T18:34:18.723Z,5.40
2022-12-11T18:36:46.503Z,6.80
2022-12-11T18:39:14.258Z,5.20
2022-12-11T18:41:42.075Z,5.20
2022-12-11T18:44:10.257Z,5.83
2022-12-11T18:46:40.269Z,6.50
2022-12-11T18:49:08.102Z,6.50
2022-12-11T18:51:35.871Z,7.80
2022-12-11T18:54:03.749Z,6.33
2022-12-11T18:56:31.594Z,6.07
2022-12-11T18:58:59.345Z,8.23
2022-12-11T19:01:28.977Z,10.83
2022-12-11T19:04:04.498Z,10.23
2022-12-11T19:06:35.368Z,4.93
2022-12-11T19:09:04.962Z,4.23
2022-12-11T19:11:34.830Z,3.83
2022-12-11T19:14:02.980Z,3.70
2022-12-11T19:16:33.393Z,4.20
2022-12-11T19:19:04.873Z,3.57
2022-12-11T19:21:33.740Z,4.20
2022-12-11T19:24:01.654Z,3.73
2022-12-11T19:26:29.423Z,4.03
2022-12-11T19:28:59.921Z,3.17
2022-12-11T19:31:30.319Z,3.33
2022-12-11T19:33:58.648Z,3.43
2022-12-11T19:36:30.344Z,4.07
2022-12-11T19:39:01.836Z,4.30
2022-12-11T19:41:32.231Z,3.70
2022-12-11T19:44:00.633Z,4.40
2022-12-11T19:46:29.623Z,5.33
2022-12-11T19:48:59.007Z,4.67
2022-12-11T19:51:30.487Z,4.00
2022-12-11T19:53:59.588Z,4.13
2022-12-11T19:56:27.734Z,3.77
2022-12-11T19:58:55.532Z,4.00
2022-12-11T20:01:28.333Z,4.30
2022-12-11T20:03:58.479Z,3.73
2022-12-11T20:06:29.900Z,3.50
2022-12-11T20:08:57.861Z,4.60
2022-12-11T20:11:26.304Z,3.90
2022-12-11T20:13:55.466Z,4.80
2022-12-11T20:16:39.520Z,4.60
2022-12-11T20:19:11.319Z,5.37
2022-12-11T20:21:40.481Z,5.37
2022-12-11T20:24:08.860Z,5.87
2022-12-11T20:26:38.021Z,6.47
2022-12-11T20:29:08.109Z,5.30
2022-12-11T20:31:36.841Z,6.27
2022-12-11T20:34:06.225Z,7.53
2022-12-11T20:36:34.231Z,6.80
2022-12-11T20:39:03.880Z,7.20
2022-12-11T20:41:31.654Z,7.00
2022-12-11T20:43:59.424Z,6.93
2022-12-11T20:46:28.368Z,6.70
2022-12-11T20:48:59.346Z,5.93
2022-12-11T20:51:28.948Z,6.60
2022-12-11T20:53:59.123Z,6.73
2022-12-11T20:56:30.855Z,6.50
2022-12-11T20:58:59.764Z,7.50
2022-12-11T21:01:29.600Z,6.13
2022-12-11T21:03:58.011Z,6.57
2022-12-11T21:06:28.334Z,6.47
2022-12-11T21:08:56.123Z,5.93
2022-12-11T21:11:24.751Z,7.27
2022-12-11T21:13:54.186Z,6.90
2022-12-11T21:16:22.997Z,7.60
2022-12-11T21:18:50.897Z,7.00
2022-12-11T21:21:18.998Z,7.17
2022-12-11T21:23:46.831Z,8.30
2022-12-11T21:26:15.316Z,7.97
2022-12-11T21:28:43.232Z,6.20
2022-12-11T21:31:16.636Z,6.93
2022-12-11T21:33:44.629Z,7.33
2022-12-11T21:36:14.137Z,7.20
2022-12-11T21:38:43.488Z,6.63
2022-12-11T21:41:13.511Z,6.60
2022-12-11T21:44:12.923Z,6.50
2022-12-11T21:46:30.678Z,6.50
2022-12-11T21:48:58.848Z,8.00
2022-12-11T21:51:36.180Z,6.77
2022-12-11T21:54:07.080Z,7.53
2022-12-11T21:56:35.169Z,7.20
2022-12-11T21:59:03.124Z,7.20
2022-12-11T22:01:35.020Z,7.30
2022-12-11T22:04:03.420Z,7.10
2022-12-11T22:06:31.337Z,6.73
2022-12-11T22:08:59.124Z,8.20
2022-12-11T22:11:29.888Z,6.77
2022-12-11T22:13:58.029Z,8.37
2022-12-11T22:16:25.829Z,8.37
2022-12-11T22:18:55.019Z,6.93
2022-12-11T22:21:22.961Z,7.60
2022-12-11T22:23:51.100Z,6.87
2022-12-11T22:26:22.067Z,8.23
2022-12-11T22:28:50.527Z,8.00
2022-12-11T22:31:21.188Z,8.00
2022-12-11T22:33:50.347Z,6.37
2022-12-11T22:36:19.520Z,7.30
2022-12-11T22:38:47.958Z,6.73
2022-12-11T22:41:22.324Z,7.27
2022-12-11T22:43:50.428Z,6.50
2022-12-11T22:46:23.267Z,6.63
2022-12-11T22:48:51.487Z,7.00
2022-12-11T22:51:20.973Z,7.77
2022-12-11T22:53:51.074Z,6.27
2022-12-11T22:56:19.112Z,6.87
2022-12-11T23:01:24.503Z,7.47
2022-12-11T23:03:53.362Z,7.63
2022-12-11T23:06:24.680Z,7.30
2022-12-11T23:08:54.845Z,6.73
2022-12-11T23:11:25.739Z,6.70
2022-12-11T23:13:53.749Z,5.50
2022-12-11T23:16:21.929Z,7.67
2022-12-11T23:18:49.748Z,6.57
2022-12-11T23:21:18.153Z,7.33
2022-12-11T23:23:47.319Z,7.20
2022-12-11T23:26:16.403Z,6.53
2022-12-11T23:28:44.151Z,7.07
2022-12-11T23:31:12.883Z,8.30
2022-12-11T23:33:40.729Z,6.50
2022-12-11T23:36:09.698Z,7.33
2022-12-11T23:38:38.097Z,6.00
2022-12-11T23:41:08.291Z,7.00
2022-12-11T23:43:37.353Z,7.47
2022-12-11T23:46:05.877Z,7.43
2022-12-11T23:48:33.886Z,6.80
2022-12-11T23:51:02.638Z,5.93
2022-12-11T23:53:30.514Z,6.40
2022-12-11T23:56:02.846Z,6.13
2022-12-11T23:58:31.974Z,6.33
